sensor_id;sensor_type;location;lat;lon;timestamp;pressure;altitude;pressure_sealevel;temperature;humidity
61474;BME280;53694;49.784;30.150;2023-08-06T00:01:00;99103.16;;;25.63;65.84
61474;BME280;53694;49.784;30.150;2023-08-06T00:02:02;99098.80;;;25.62;65.71
61474;BME280;53694;49.784;30.150;2023-08-06T00:03:04;99096.81;;;25.53;65.85
61474;BME280;53694;49.784;30.150;2023-08-06T00:04:05;99105.47;;;25.40;66.24
61474;BME280;53694;49.784;30.150;2023-08-06T00:05:07;99098.19;;;25.25;66.71
61474;BME280;53694;49.784;30.150;2023-08-06T00:06:09;99100.88;;;25.10;67.12
61474;BME280;53694;49.784;30.150;2023-08-06T00:07:11;99101.23;;;24.93;67.74
61474;BME280;53694;49.784;30.150;2023-08-06T00:08:12;99101.87;;;24.79;68.27
61474;BME280;53694;49.784;30.150;2023-08-06T00:09:13;99091.31;;;24.65;68.91
61474;BME280;53694;49.784;30.150;2023-08-06T00:10:15;99098.16;;;24.55;69.45
61474;BME280;53694;49.784;30.150;2023-08-06T00:11:17;99093.53;;;24.42;69.97
61474;BME280;53694;49.784;30.150;2023-08-06T00:12:19;99095.21;;;24.31;70.67
61474;BME280;53694;49.784;30.150;2023-08-06T00:13:20;99101.27;;;24.20;71.16
61474;BME280;53694;49.784;30.150;2023-08-06T00:14:23;99100.02;;;24.12;71.68
61474;BME280;53694;49.784;30.150;2023-08-06T00:15:24;99096.92;;;24.10;72.27
61474;BME280;53694;49.784;30.150;2023-08-06T00:16:26;99108.14;;;24.19;72.24
61474;BME280;53694;49.784;30.150;2023-08-06T00:17:27;99102.09;;;24.39;71.81
61474;BME280;53694;49.784;30.150;2023-08-06T00:18:29;99097.86;;;24.62;70.86
61474;BME280;53694;49.784;30.150;2023-08-06T00:19:31;99099.04;;;24.88;70.22
61474;BME280;53694;49.784;30.150;2023-08-06T00:20:33;99091.83;;;25.15;69.08
61474;BME280;53694;49.784;30.150;2023-08-06T00:21:35;99092.19;;;25.41;68.07
61474;BME280;53694;49.784;30.150;2023-08-06T00:22:37;99092.20;;;25.65;67.30
61474;BME280;53694;49.784;30.150;2023-08-06T00:23:40;99089.32;;;25.83;66.42
61474;BME280;53694;49.784;30.150;2023-08-06T00:24:42;99097.87;;;25.89;65.92
61474;BME280;53694;49.784;30.150;2023-08-06T00:25:43;99093.69;;;25.84;65.89
61474;BME280;53694;49.784;30.150;2023-08-06T00:26:45;99092.34;;;25.71;66.16
61474;BME280;53694;49.784;30.150;2023-08-06T00:27:46;99094.46;;;25.52;66.62
61474;BME280;53694;49.784;30.150;2023-08-06T00:28:48;99091.43;;;25.31;67.43
61474;BME280;53694;49.784;30.150;2023-08-06T00:29:49;99098.39;;;25.12;68.09
61474;BME280;53694;49.784;30.150;2023-08-06T00:30:55;99088.42;;;24.92;68.70
61474;BME280;53694;49.784;30.150;2023-08-06T00:31:56;99086.45;;;24.75;69.49
61474;BME280;53694;49.784;30.150;2023-08-06T00:32:58;99086.01;;;24.58;70.33
61474;BME280;53694;49.784;30.150;2023-08-06T00:33:59;99087.44;;;24.44;71.03
61474;BME280;53694;49.784;30.150;2023-08-06T00:35:01;99079.15;;;24.31;71.66
61474;BME280;53694;49.784;30.150;2023-08-06T00:36:03;99086.63;;;24.25;72.25
61474;BME280;53694;49.784;30.150;2023-08-06T00:37:04;99100.83;;;24.31;72.35
61474;BME280;53694;49.784;30.150;2023-08-06T00:38:06;99094.59;;;24.45;72.08
61474;BME280;53694;49.784;30.150;2023-08-06T00:39:07;99090.05;;;24.66;71.86
61474;BME280;53694;49.784;30.150;2023-08-06T00:40:10;99094.52;;;24.91;70.81
61474;BME280;53694;49.784;30.150;2023-08-06T00:41:12;99101.81;;;25.16;70.11
61474;BME280;53694;49.784;30.150;2023-08-06T00:42:13;99092.64;;;25.39;69.18
61474;BME280;53694;49.784;30.150;2023-08-06T00:43:15;99089.09;;;25.63;68.13
61474;BME280;53694;49.784;30.150;2023-08-06T00:44:16;99084.64;;;25.80;67.49
61474;BME280;53694;49.784;30.150;2023-08-06T00:45:18;99086.13;;;25.90;66.97
61474;BME280;53694;49.784;30.150;2023-08-06T00:46:20;99087.39;;;25.89;66.74
61474;BME280;53694;49.784;30.150;2023-08-06T00:47:22;99091.53;;;25.79;67.06
61474;BME280;53694;49.784;30.150;2023-08-06T00:48:24;99088.60;;;25.40;68.49
61474;BME280;53694;49.784;30.150;2023-08-06T00:49:26;99088.60;;;25.40;68.49
61474;BME280;53694;49.784;30.150;2023-08-06T00:50:28;99090.09;;;25.17;69.07
61474;BME280;53694;49.784;30.150;2023-08-06T00:51:30;99079.84;;;24.96;69.87
61474;BME280;53694;49.784;30.150;2023-08-06T00:52:32;99081.92;;;24.77;70.55
61474;BME280;53694;49.784;30.150;2023-08-06T00:53:34;99085.23;;;24.57;71.57
61474;BME280;53694;49.784;30.150;2023-08-06T00:54:36;99077.91;;;24.41;72.31
61474;BME280;53694;49.784;30.150;2023-08-06T00:55:38;99074.31;;;24.32;73.17
61474;BME280;53694;49.784;30.150;2023-08-06T00:56:41;99071.36;;;24.35;73.36
61474;BME280;53694;49.784;30.150;2023-08-06T00:57:43;99077.61;;;24.49;73.34
61474;BME280;53694;49.784;30.150;2023-08-06T00:58:45;99072.27;;;24.69;72.75
61474;BME280;53694;49.784;30.150;2023-08-06T00:59:47;99074.38;;;24.92;71.95
61474;BME280;53694;49.784;30.150;2023-08-06T01:00:49;99075.43;;;25.13;71.02
61474;BME280;53694;49.784;30.150;2023-08-06T01:01:51;99073.63;;;25.34;70.42
61474;BME280;53694;49.784;30.150;2023-08-06T01:02:53;99068.21;;;25.55;69.75
61474;BME280;53694;49.784;30.150;2023-08-06T01:03:55;99073.72;;;25.73;69.00
61474;BME280;53694;49.784;30.150;2023-08-06T01:04:57;99065.66;;;25.90;68.16
61474;BME280;53694;49.784;30.150;2023-08-06T01:05:59;99072.48;;;25.98;67.52
61474;BME280;53694;49.784;30.150;2023-08-06T01:12:18;99058.14;;;24.97;70.73
61474;BME280;53694;49.784;30.150;2023-08-06T01:13:36;99056.36;;;24.66;72.00
61474;BME280;53694;49.784;30.150;2023-08-06T01:15:07;99055.79;;;24.43;72.95
61474;BME280;53694;49.784;30.150;2023-08-06T01:16:06;99056.86;;;24.28;73.81
61474;BME280;53694;49.784;30.150;2023-08-06T01:17:08;99060.58;;;24.34;74.20
61474;BME280;53694;49.784;30.150;2023-08-06T01:18:10;99054.22;;;24.52;73.91
61474;BME280;53694;49.784;30.150;2023-08-06T01:19:19;99053.23;;;24.73;73.28
61474;BME280;53694;49.784;30.150;2023-08-06T01:20:20;99050.97;;;24.96;72.43
61474;BME280;53694;49.784;30.150;2023-08-06T01:21:22;99050.88;;;25.23;71.68
61474;BME280;53694;49.784;30.150;2023-08-06T01:22:23;99048.59;;;25.46;70.53
61474;BME280;53694;49.784;30.150;2023-08-06T01:23:25;99047.20;;;25.65;69.53
61474;BME280;53694;49.784;30.150;2023-08-06T01:24:27;99046.82;;;25.81;68.84
61474;BME280;53694;49.784;30.150;2023-08-06T01:25:40;99044.84;;;25.97;68.27
61474;BME280;53694;49.784;30.150;2023-08-06T01:26:48;99045.05;;;26.08;67.68
61474;BME280;53694;49.784;30.150;2023-08-06T01:27:49;99046.80;;;26.05;67.49
61474;BME280;53694;49.784;30.150;2023-08-06T01:29:10;99051.14;;;25.91;67.73
61474;BME280;53694;49.784;30.150;2023-08-06T01:30:16;99034.84;;;25.72;68.11
61474;BME280;53694;49.784;30.150;2023-08-06T01:31:26;99046.73;;;25.42;69.14
61474;BME280;53694;49.784;30.150;2023-08-06T01:32:25;99040.00;;;25.16;70.18
61474;BME280;53694;49.784;30.150;2023-08-06T01:33:27;99038.84;;;24.89;71.30
61474;BME280;53694;49.784;30.150;2023-08-06T01:34:32;99041.06;;;24.67;72.31
61474;BME280;53694;49.784;30.150;2023-08-06T01:35:35;99037.22;;;24.55;73.20
61474;BME280;53694;49.784;30.150;2023-08-06T01:36:39;99038.00;;;24.56;73.50
61474;BME280;53694;49.784;30.150;2023-08-06T01:37:41;99033.13;;;24.65;73.28
61474;BME280;53694;49.784;30.150;2023-08-06T01:38:44;99034.80;;;24.81;73.01
61474;BME280;53694;49.784;30.150;2023-08-06T01:39:46;99034.73;;;25.00;72.13
61474;BME280;53694;49.784;30.150;2023-08-06T01:40:47;99030.91;;;25.21;71.44
61474;BME280;53694;49.784;30.150;2023-08-06T01:41:48;99030.81;;;25.39;70.51
61474;BME280;53694;49.784;30.150;2023-08-06T01:42:50;99035.74;;;25.54;69.86
61474;BME280;53694;49.784;30.150;2023-08-06T01:43:51;99037.54;;;25.66;69.35
61474;BME280;53694;49.784;30.150;2023-08-06T01:44:53;99028.09;;;25.78;69.04
61474;BME280;53694;49.784;30.150;2023-08-06T01:45:54;99036.66;;;25.84;68.58
61474;BME280;53694;49.784;30.150;2023-08-06T01:46:56;99029.94;;;25.81;68.57
61474;BME280;53694;49.784;30.150;2023-08-06T01:47:58;99028.44;;;25.71;68.86
61474;BME280;53694;49.784;30.150;2023-08-06T01:48:59;99035.14;;;25.50;69.25
61474;BME280;53694;49.784;30.150;2023-08-06T01:50:00;99029.80;;;25.28;70.09
61474;BME280;53694;49.784;30.150;2023-08-06T01:51:05;99033.30;;;25.04;70.95
61474;BME280;53694;49.784;30.150;2023-08-06T01:52:07;99027.93;;;24.82;71.88
61474;BME280;53694;49.784;30.150;2023-08-06T01:53:09;99031.09;;;24.66;72.65
61474;BME280;53694;49.784;30.150;2023-08-06T01:54:10;99033.29;;;24.62;73.12
61474;BME280;53694;49.784;30.150;2023-08-06T01:55:12;99034.23;;;24.68;73.17
61474;BME280;53694;49.784;30.150;2023-08-06T01:56:14;99025.61;;;24.81;73.03
61474;BME280;53694;49.784;30.150;2023-08-06T01:57:15;99034.41;;;24.98;72.46
61474;BME280;53694;49.784;30.150;2023-08-06T01:58:17;99032.83;;;25.15;71.85
61474;BME280;53694;49.784;30.150;2023-08-06T01:59:18;99029.61;;;25.31;71.37
61474;BME280;53694;49.784;30.150;2023-08-06T02:00:20;99027.94;;;25.49;70.78
61474;BME280;53694;49.784;30.150;2023-08-06T02:01:21;99021.62;;;25.63;69.97
61474;BME280;53694;49.784;30.150;2023-08-06T02:02:23;99030.59;;;25.76;69.56
61474;BME280;53694;49.784;30.150;2023-08-06T02:03:24;99020.20;;;25.91;68.96
61474;BME280;53694;49.784;30.150;2023-08-06T02:04:26;99021.84;;;25.98;68.33
61474;BME280;53694;49.784;30.150;2023-08-06T02:05:27;99020.79;;;25.96;68.31
61474;BME280;53694;49.784;30.150;2023-08-06T02:06:29;99019.78;;;25.84;68.56
61474;BME280;53694;49.784;30.150;2023-08-06T02:07:30;99026.75;;;25.64;69.01
61474;BME280;53694;49.784;30.150;2023-08-06T02:08:32;99024.56;;;25.45;69.81
61474;BME280;53694;49.784;30.150;2023-08-06T02:09:34;99023.75;;;25.20;70.55
61474;BME280;53694;49.784;30.150;2023-08-06T02:10:35;99026.95;;;24.94;71.51
61474;BME280;53694;49.784;30.150;2023-08-06T02:11:37;99023.58;;;24.72;72.48
61474;BME280;53694;49.784;30.150;2023-08-06T02:12:38;99023.96;;;24.56;73.31
61474;BME280;53694;49.784;30.150;2023-08-06T02:13:39;99024.41;;;24.54;73.79
61474;BME280;53694;49.784;30.150;2023-08-06T02:14:41;99024.09;;;24.61;73.78
61474;BME280;53694;49.784;30.150;2023-08-06T02:15:43;99019.06;;;24.75;73.39
61474;BME280;53694;49.784;30.150;2023-08-06T02:16:45;99028.67;;;24.92;72.88
61474;BME280;53694;49.784;30.150;2023-08-06T02:17:47;99015.37;;;25.11;72.28
61474;BME280;53694;49.784;30.150;2023-08-06T02:18:48;99024.95;;;25.28;71.47
61474;BME280;53694;49.784;30.150;2023-08-06T02:19:49;99017.67;;;25.46;71.01
61474;BME280;53694;49.784;30.150;2023-08-06T02:21:00;99015.69;;;25.61;70.12
61474;BME280;53694;49.784;30.150;2023-08-06T02:22:02;99016.20;;;25.74;69.50
61474;BME280;53694;49.784;30.150;2023-08-06T02:23:04;99007.55;;;25.87;68.99
61474;BME280;53694;49.784;30.150;2023-08-06T02:24:06;99016.53;;;26.00;68.51
61474;BME280;53694;49.784;30.150;2023-08-06T02:25:08;99014.59;;;26.06;67.98
61474;BME280;53694;49.784;30.150;2023-08-06T02:26:10;99017.30;;;26.01;68.00
61474;BME280;53694;49.784;30.150;2023-08-06T02:27:11;99018.03;;;25.86;68.15
61474;BME280;53694;49.784;30.150;2023-08-06T02:28:13;99017.37;;;25.67;68.72
61474;BME280;53694;49.784;30.150;2023-08-06T02:29:14;99023.30;;;25.46;69.42
61474;BME280;53694;49.784;30.150;2023-08-06T02:30:16;99023.58;;;25.24;70.12
61474;BME280;53694;49.784;30.150;2023-08-06T02:31:18;99016.61;;;25.01;71.07
61474;BME280;53694;49.784;30.150;2023-08-06T02:32:19;99021.70;;;24.78;71.95
61474;BME280;53694;49.784;30.150;2023-08-06T02:33:21;99020.80;;;24.63;72.87
61474;BME280;53694;49.784;30.150;2023-08-06T02:34:22;99022.22;;;24.58;73.31
61474;BME280;53694;49.784;30.150;2023-08-06T02:35:24;99018.31;;;24.65;73.41
61474;BME280;53694;49.784;30.150;2023-08-06T02:36:25;99021.70;;;24.78;72.96
61474;BME280;53694;49.784;30.150;2023-08-06T02:37:27;99012.91;;;24.94;72.58
61474;BME280;53694;49.784;30.150;2023-08-06T02:38:29;99009.75;;;25.11;72.01
61474;BME280;53694;49.784;30.150;2023-08-06T02:39:30;99017.77;;;25.27;71.25
61474;BME280;53694;49.784;30.150;2023-08-06T02:40:32;99019.56;;;25.39;70.66
61474;BME280;53694;49.784;30.150;2023-08-06T02:41:33;99017.02;;;25.51;70.28
61474;BME280;53694;49.784;30.150;2023-08-06T02:42:35;99017.55;;;25.64;69.95
61474;BME280;53694;49.784;30.150;2023-08-06T02:43:36;99020.14;;;25.77;69.16
61474;BME280;53694;49.784;30.150;2023-08-06T02:44:38;99019.60;;;25.87;68.72
61474;BME280;53694;49.784;30.150;2023-08-06T02:45:40;99016.89;;;25.93;68.40
61474;BME280;53694;49.784;30.150;2023-08-06T02:46:41;99017.07;;;25.89;68.26
61474;BME280;53694;49.784;30.150;2023-08-06T02:47:43;99013.70;;;25.76;68.54
61474;BME280;53694;49.784;30.150;2023-08-06T02:48:44;99022.74;;;25.56;69.17
61474;BME280;53694;49.784;30.150;2023-08-06T02:49:46;99019.63;;;25.30;69.94
61474;BME280;53694;49.784;30.150;2023-08-06T02:50:48;99017.22;;;25.05;70.78
61474;BME280;53694;49.784;30.150;2023-08-06T02:51:49;99019.19;;;24.80;71.84
61474;BME280;53694;49.784;30.150;2023-08-06T02:52:51;99018.64;;;24.58;72.78
61474;BME280;53694;49.784;30.150;2023-08-06T02:53:52;99017.75;;;24.42;73.70
61474;BME280;53694;49.784;30.150;2023-08-06T02:54:54;99024.30;;;24.39;74.08
61474;BME280;53694;49.784;30.150;2023-08-06T02:55:55;99021.47;;;24.49;74.00
61474;BME280;53694;49.784;30.150;2023-08-06T02:56:57;99023.61;;;24.63;73.76
61474;BME280;53694;49.784;30.150;2023-08-06T02:57:59;99026.19;;;24.85;73.08
61474;BME280;53694;49.784;30.150;2023-08-06T02:59:00;99024.39;;;25.06;72.15
61474;BME280;53694;49.784;30.150;2023-08-06T03:00:02;99021.83;;;25.26;71.40
61474;BME280;53694;49.784;30.150;2023-08-06T03:01:06;99018.45;;;25.46;70.86
61474;BME280;53694;49.784;30.150;2023-08-06T03:02:07;99023.17;;;25.64;69.95
61474;BME280;53694;49.784;30.150;2023-08-06T03:03:09;99018.41;;;25.79;69.20
61474;BME280;53694;49.784;30.150;2023-08-06T03:04:11;99016.12;;;25.92;68.69
61474;BME280;53694;49.784;30.150;2023-08-06T03:05:12;99014.00;;;26.02;68.18
61474;BME280;53694;49.784;30.150;2023-08-06T03:06:14;99007.78;;;25.98;67.91
61474;BME280;53694;49.784;30.150;2023-08-06T03:07:15;99012.12;;;25.84;68.20
61474;BME280;53694;49.784;30.150;2023-08-06T03:08:17;99021.30;;;25.61;68.56
61474;BME280;53694;49.784;30.150;2023-08-06T03:09:18;99018.50;;;25.37;69.47
61474;BME280;53694;49.784;30.150;2023-08-06T03:10:20;99020.50;;;25.12;70.29
61474;BME280;53694;49.784;30.150;2023-08-06T03:11:22;99017.59;;;24.88;71.37
61474;BME280;53694;49.784;30.150;2023-08-06T03:12:23;99017.37;;;24.68;72.14
61474;BME280;53694;49.784;30.150;2023-08-06T03:13:25;99011.16;;;24.55;72.86
61474;BME280;53694;49.784;30.150;2023-08-06T03:14:27;99017.25;;;24.53;73.26
61474;BME280;53694;49.784;30.150;2023-08-06T03:15:28;99010.34;;;24.63;73.15
61474;BME280;53694;49.784;30.150;2023-08-06T03:16:30;99017.47;;;24.83;72.90
61474;BME280;53694;49.784;30.150;2023-08-06T03:17:32;99013.35;;;25.02;72.11
61474;BME280;53694;49.784;30.150;2023-08-06T03:18:33;99012.80;;;25.22;71.24
61474;BME280;53694;49.784;30.150;2023-08-06T03:19:36;99013.48;;;25.41;70.69
61474;BME280;53694;49.784;30.150;2023-08-06T03:20:37;99008.23;;;25.58;69.54
61474;BME280;53694;49.784;30.150;2023-08-06T03:21:39;99007.31;;;25.76;68.90
61474;BME280;53694;49.784;30.150;2023-08-06T03:22:40;99008.63;;;25.89;68.18
61474;BME280;53694;49.784;30.150;2023-08-06T03:23:42;99004.97;;;25.98;67.70
61474;BME280;53694;49.784;30.150;2023-08-06T03:24:43;99001.87;;;25.96;67.42
61474;BME280;53694;49.784;30.150;2023-08-06T03:25:45;99005.23;;;25.85;67.79
61474;BME280;53694;49.784;30.150;2023-08-06T03:26:46;99004.39;;;25.70;68.21
61474;BME280;53694;49.784;30.150;2023-08-06T03:27:48;99003.91;;;25.48;68.87
61474;BME280;53694;49.784;30.150;2023-08-06T03:28:49;98998.58;;;25.26;69.67
61474;BME280;53694;49.784;30.150;2023-08-06T03:29:51;99005.22;;;25.04;70.48
61474;BME280;53694;49.784;30.150;2023-08-06T03:31:00;99001.40;;;24.83;71.15
61474;BME280;53694;49.784;30.150;2023-08-06T03:32:02;98996.16;;;24.67;72.16
61474;BME280;53694;49.784;30.150;2023-08-06T03:33:04;98994.02;;;24.53;72.82
61474;BME280;53694;49.784;30.150;2023-08-06T03:34:05;98998.38;;;24.54;73.26
61474;BME280;53694;49.784;30.150;2023-08-06T03:35:07;99003.80;;;24.66;73.10
61474;BME280;53694;49.784;30.150;2023-08-06T03:36:10;99001.40;;;24.83;72.61
61474;BME280;53694;49.784;30.150;2023-08-06T03:37:11;98995.70;;;25.02;72.00
61474;BME280;53694;49.784;30.150;2023-08-06T03:38:13;98996.55;;;25.26;71.34
61474;BME280;53694;49.784;30.150;2023-08-06T03:39:14;98992.66;;;25.48;70.45
61474;BME280;53694;49.784;30.150;2023-08-06T03:40:16;98991.57;;;25.69;69.38
61474;BME280;53694;49.784;30.150;2023-08-06T03:41:18;98990.67;;;25.87;68.58
61474;BME280;53694;49.784;30.150;2023-08-06T03:42:19;99001.48;;;26.03;67.85
61474;BME280;53694;49.784;30.150;2023-08-06T03:43:20;98998.30;;;26.10;67.37
61474;BME280;53694;49.784;30.150;2023-08-06T03:44:22;98998.20;;;26.05;67.25
61474;BME280;53694;49.784;30.150;2023-08-06T03:45:23;98993.61;;;25.92;67.63
61474;BME280;53694;49.784;30.150;2023-08-06T03:46:25;98992.48;;;25.75;68.06
61474;BME280;53694;49.784;30.150;2023-08-06T03:47:27;98996.38;;;25.54;68.69
61474;BME280;53694;49.784;30.150;2023-08-06T03:48:28;98997.45;;;25.32;69.50
61474;BME280;53694;49.784;30.150;2023-08-06T03:49:31;98997.25;;;25.12;70.43
61474;BME280;53694;49.784;30.150;2023-08-06T03:50:32;99000.30;;;24.90;71.23
61474;BME280;53694;49.784;30.150;2023-08-06T03:51:34;98995.50;;;24.72;72.31
61474;BME280;53694;49.784;30.150;2023-08-06T03:52:35;99000.86;;;24.61;73.15
61474;BME280;53694;49.784;30.150;2023-08-06T03:53:37;98988.08;;;24.60;73.44
61474;BME280;53694;49.784;30.150;2023-08-06T03:54:38;98993.02;;;24.74;73.44
61474;BME280;53694;49.784;30.150;2023-08-06T03:55:40;98988.28;;;24.89;72.56
61474;BME280;53694;49.784;30.150;2023-08-06T03:56:42;98987.28;;;25.11;72.36
61474;BME280;53694;49.784;30.150;2023-08-06T03:57:43;98988.71;;;25.30;71.30
61474;BME280;53694;49.784;30.150;2023-08-06T03:58:45;98990.94;;;25.50;70.69
61474;BME280;53694;49.784;30.150;2023-08-06T03:59:46;98986.72;;;25.69;69.99
61474;BME280;53694;49.784;30.150;2023-08-06T04:00:48;98980.50;;;25.89;69.17
61474;BME280;53694;49.784;30.150;2023-08-06T04:01:49;98986.27;;;26.10;68.36
61474;BME280;53694;49.784;30.150;2023-08-06T04:02:51;98973.96;;;26.22;67.43
61474;BME280;53694;49.784;30.150;2023-08-06T04:03:52;98982.41;;;26.22;67.16
61474;BME280;53694;49.784;30.150;2023-08-06T04:04:54;98977.64;;;26.13;67.41
61474;BME280;53694;49.784;30.150;2023-08-06T04:05:55;98977.91;;;26.01;67.64
61474;BME280;53694;49.784;30.150;2023-08-06T04:06:57;98975.24;;;25.82;68.04
61474;BME280;53694;49.784;30.150;2023-08-06T04:07:59;98973.82;;;25.63;68.86
61474;BME280;53694;49.784;30.150;2023-08-06T04:09:00;98975.20;;;25.43;69.55
61474;BME280;53694;49.784;30.150;2023-08-06T04:10:03;98971.73;;;25.25;70.59
61474;BME280;53694;49.784;30.150;2023-08-06T04:11:06;98966.66;;;25.05;70.96
61474;BME280;53694;49.784;30.150;2023-08-06T04:12:07;98972.67;;;24.88;71.61
61474;BME280;53694;49.784;30.150;2023-08-06T04:13:09;98971.16;;;24.78;72.58
61474;BME280;53694;49.784;30.150;2023-08-06T04:14:10;98971.94;;;24.79;73.01
61474;BME280;53694;49.784;30.150;2023-08-06T04:15:12;98971.72;;;24.91;72.73
61474;BME280;53694;49.784;30.150;2023-08-06T04:16:14;98977.27;;;25.10;72.50
61474;BME280;53694;49.784;30.150;2023-08-06T04:17:15;98970.91;;;25.33;71.59
61474;BME280;53694;49.784;30.150;2023-08-06T04:18:16;98966.05;;;25.58;70.47
61474;BME280;53694;49.784;30.150;2023-08-06T04:19:18;98969.62;;;25.82;69.59
61474;BME280;53694;49.784;30.150;2023-08-06T04:20:20;98973.66;;;26.05;68.36
61474;BME280;53694;49.784;30.150;2023-08-06T04:21:21;98974.23;;;26.24;67.54
61474;BME280;53694;49.784;30.150;2023-08-06T04:22:22;98972.71;;;26.38;66.87
61474;BME280;53694;49.784;30.150;2023-08-06T04:23:24;98967.08;;;26.38;66.52
61474;BME280;53694;49.784;30.150;2023-08-06T04:24:26;98969.50;;;26.30;66.51
61474;BME280;53694;49.784;30.150;2023-08-06T04:25:27;98965.89;;;26.15;66.80
61474;BME280;53694;49.784;30.150;2023-08-06T04:26:29;98964.53;;;25.96;67.54
61474;BME280;53694;49.784;30.150;2023-08-06T04:27:30;98966.70;;;25.77;68.24
61474;BME280;53694;49.784;30.150;2023-08-06T04:28:32;98959.17;;;25.59;68.72
61474;BME280;53694;49.784;30.150;2023-08-06T04:29:33;98960.38;;;25.43;69.46
61474;BME280;53694;49.784;30.150;2023-08-06T04:30:37;98958.47;;;25.25;70.06
61474;BME280;53694;49.784;30.150;2023-08-06T04:31:38;98949.86;;;24.96;71.86
61474;BME280;53694;49.784;30.150;2023-08-06T04:32:40;98949.86;;;24.96;71.86
61474;BME280;53694;49.784;30.150;2023-08-06T04:33:42;98950.69;;;24.87;71.96
61474;BME280;53694;49.784;30.150;2023-08-06T04:34:43;98958.00;;;24.93;72.05
61474;BME280;53694;49.784;30.150;2023-08-06T04:35:45;98948.86;;;25.08;71.98
61474;BME280;53694;49.784;30.150;2023-08-06T04:36:46;98949.37;;;25.30;71.41
61474;BME280;53694;49.784;30.150;2023-08-06T04:37:48;98954.98;;;25.54;70.33
61474;BME280;53694;49.784;30.150;2023-08-06T04:38:49;98953.73;;;25.79;69.47
61474;BME280;53694;49.784;30.150;2023-08-06T04:39:51;98948.80;;;26.04;68.51
61474;BME280;53694;49.784;30.150;2023-08-06T04:40:53;98942.05;;;26.25;67.81
61474;BME280;53694;49.784;30.150;2023-08-06T04:41:55;98948.73;;;26.42;66.97
61474;BME280;53694;49.784;30.150;2023-08-06T04:42:57;98949.62;;;26.49;66.52
61474;BME280;53694;49.784;30.150;2023-08-06T04:43:58;98943.41;;;26.45;66.49
61474;BME280;53694;49.784;30.150;2023-08-06T04:45:01;98940.86;;;26.32;66.36
61474;BME280;53694;49.784;30.150;2023-08-06T04:46:03;98944.92;;;26.16;66.89
61474;BME280;53694;49.784;30.150;2023-08-06T04:47:05;98937.17;;;25.96;67.33
61474;BME280;53694;49.784;30.150;2023-08-06T04:48:06;98940.44;;;25.80;68.02
61474;BME280;53694;49.784;30.150;2023-08-06T04:49:08;98927.57;;;25.64;68.54
61474;BME280;53694;49.784;30.150;2023-08-06T04:50:10;98930.15;;;25.53;69.00
61474;BME280;53694;49.784;30.150;2023-08-06T04:51:11;98932.75;;;25.41;69.35
61474;BME280;53694;49.784;30.150;2023-08-06T04:52:12;98933.28;;;25.31;69.81
61474;BME280;53694;49.784;30.150;2023-08-06T04:53:14;98924.92;;;25.22;70.42
61474;BME280;53694;49.784;30.150;2023-08-06T04:54:16;98922.45;;;25.14;70.48
61474;BME280;53694;49.784;30.150;2023-08-06T04:55:17;98926.08;;;25.06;70.84
61474;BME280;53694;49.784;30.150;2023-08-06T04:56:19;98925.79;;;25.04;71.44
61474;BME280;53694;49.784;30.150;2023-08-06T04:57:20;98915.78;;;25.12;71.60
61474;BME280;53694;49.784;30.150;2023-08-06T04:58:22;98921.76;;;25.29;70.64
61474;BME280;53694;49.784;30.150;2023-08-06T04:59:23;98918.63;;;25.51;69.89
61474;BME280;53694;49.784;30.150;2023-08-06T05:00:25;98922.48;;;25.77;68.87
61474;BME280;53694;49.784;30.150;2023-08-06T05:01:26;98920.97;;;26.06;67.90
61474;BME280;53694;49.784;30.150;2023-08-06T05:02:28;98919.80;;;26.27;66.64
61474;BME280;53694;49.784;30.150;2023-08-06T05:03:29;98924.36;;;26.39;65.97
61474;BME280;53694;49.784;30.150;2023-08-06T05:04:31;98923.09;;;26.40;65.66
61474;BME280;53694;49.784;30.150;2023-08-06T05:05:32;98927.86;;;26.34;65.79
61474;BME280;53694;49.784;30.150;2023-08-06T05:06:34;98925.16;;;26.25;66.08
61474;BME280;53694;49.784;30.150;2023-08-06T05:07:35;98920.87;;;26.15;66.54
61474;BME280;53694;49.784;30.150;2023-08-06T05:08:37;98922.70;;;26.03;67.01
61474;BME280;53694;49.784;30.150;2023-08-06T05:09:38;98928.61;;;25.90;67.07
61474;BME280;53694;49.784;30.150;2023-08-06T05:10:42;98914.36;;;25.79;67.55
61474;BME280;53694;49.784;30.150;2023-08-06T05:11:44;98921.45;;;25.65;68.12
61474;BME280;53694;49.784;30.150;2023-08-06T05:12:46;98919.22;;;25.55;68.85
61474;BME280;53694;49.784;30.150;2023-08-06T05:13:48;98916.48;;;25.46;69.01
61474;BME280;53694;49.784;30.150;2023-08-06T05:14:49;98908.90;;;25.37;69.60
61474;BME280;53694;49.784;30.150;2023-08-06T05:15:52;98912.55;;;25.28;70.17
61474;BME280;53694;49.784;30.150;2023-08-06T05:16:54;98911.64;;;25.22;70.46
61474;BME280;53694;49.784;30.150;2023-08-06T05:17:56;98906.69;;;25.17;70.77
61474;BME280;53694;49.784;30.150;2023-08-06T05:18:57;98907.47;;;25.17;70.67
61474;BME280;53694;49.784;30.150;2023-08-06T05:19:58;98904.41;;;25.30;70.52
61474;BME280;53694;49.784;30.150;2023-08-06T05:21:00;98906.11;;;25.52;70.24
61474;BME280;53694;49.784;30.150;2023-08-06T05:22:02;98911.23;;;25.77;68.62
61474;BME280;53694;49.784;30.150;2023-08-06T05:23:04;98903.59;;;26.07;67.48
61474;BME280;53694;49.784;30.150;2023-08-06T05:24:05;98913.60;;;26.38;66.64
61474;BME280;53694;49.784;30.150;2023-08-06T05:25:07;98904.83;;;26.65;65.61
61474;BME280;53694;49.784;30.150;2023-08-06T05:26:09;98906.83;;;26.80;64.92
61474;BME280;53694;49.784;30.150;2023-08-06T05:27:10;98905.85;;;26.83;64.60
61474;BME280;53694;49.784;30.150;2023-08-06T05:28:12;98906.83;;;26.80;64.67
61474;BME280;53694;49.784;30.150;2023-08-06T05:29:16;98900.55;;;26.70;64.91
61474;BME280;53694;49.784;30.150;2023-08-06T05:30:17;98897.55;;;26.59;65.13